createdAt,value
2019-06-07T00:00:38.104Z,1010.89
2019-06-07T00:01:27.672Z,1010.88
2019-06-07T00:02:27.679Z,1010.87
2019-06-07T00:03:30.253Z,1010.85
2019-06-07T00:04:27.669Z,1010.86
2019-06-07T00:05:27.672Z,1010.82
2019-06-07T00:06:27.690Z,1010.84
2019-06-07T00:07:27.665Z,1010.87
2019-06-07T00:08:29.245Z,1010.87
2019-06-07T00:09:27.664Z,1010.88
2019-06-07T00:10:36.766Z,1010.92
2019-06-07T00:11:27.661Z,1010.90
2019-06-07T00:12:27.660Z,1010.89
2019-06-07T00:13:27.658Z,1010.87
2019-06-07T00:14:27.706Z,1010.85
2019-06-07T00:15:29.041Z,1010.85
2019-06-07T00:16:27.655Z,1010.82
2019-06-07T00:17:27.672Z,1010.87
2019-06-07T00:18:27.651Z,1010.88
2019-06-07T00:19:27.648Z,1010.87
2019-06-07T00:20:27.649Z,1010.91
2019-06-07T00:22:12.800Z,1010.94
2019-06-07T00:22:33.028Z,1010.90
2019-06-07T00:23:27.646Z,1010.86
2019-06-07T00:24:27.642Z,1010.88
2019-06-07T00:25:27.641Z,1010.80
2019-06-07T00:26:27.641Z,1010.82
2019-06-07T00:27:27.639Z,1010.83
2019-06-07T00:28:27.639Z,1010.82
2019-06-07T00:29:27.651Z,1010.89
2019-06-07T00:30:44.435Z,1010.90
2019-06-07T00:31:27.641Z,1010.94
2019-06-07T00:32:27.633Z,1010.92
2019-06-07T00:33:27.628Z,1010.97
2019-06-07T00:34:27.631Z,1010.90
2019-06-07T00:35:27.628Z,1010.87
2019-06-07T00:36:27.628Z,1010.88
2019-06-07T00:37:27.623Z,1010.85
2019-06-07T00:38:27.625Z,1010.85
2019-06-07T00:39:27.621Z,1010.84
2019-06-07T00:40:31.998Z,1010.81
2019-06-07T00:41:27.615Z,1010.84
2019-06-07T00:42:27.623Z,1010.80
2019-06-07T00:43:28.562Z,1010.83
2019-06-07T00:44:27.628Z,1010.79
2019-06-07T00:45:27.612Z,1010.74
2019-06-07T00:46:27.618Z,1010.76
2019-06-07T00:47:27.610Z,1010.71
2019-06-07T00:48:32.598Z,1010.71
2019-06-07T00:49:40.634Z,1010.74
2019-06-07T00:50:27.607Z,1010.73
2019-06-07T00:51:27.604Z,1010.73
2019-06-07T00:53:13.961Z,1010.73
2019-06-07T00:53:32.079Z,1010.74
2019-06-07T00:54:27.605Z,1010.75
2019-06-07T00:55:27.828Z,1010.74
2019-06-07T00:56:27.602Z,1010.74
2019-06-07T00:57:27.634Z,1010.74
2019-06-07T00:58:29.476Z,1010.74
2019-06-07T00:59:29.535Z,1010.77
2019-06-07T01:00:27.597Z,1010.82
2019-06-07T01:01:27.595Z,1010.81
2019-06-07T01:02:31.177Z,1010.78
2019-06-07T01:03:27.592Z,1010.76
2019-06-07T01:04:27.592Z,1010.72
2019-06-07T01:05:31.363Z,1010.71
2019-06-07T01:06:27.585Z,1010.69
2019-06-07T01:07:27.623Z,1010.74
2019-06-07T01:08:29.971Z,1010.75
2019-06-07T01:09:27.581Z,1010.83
2019-06-07T01:10:51.775Z,1010.83
2019-06-07T01:11:27.577Z,1010.83
2019-06-07T01:12:27.584Z,1010.83
2019-06-07T01:13:27.569Z,1010.81
2019-06-07T01:14:28.745Z,1010.80
2019-06-07T01:15:29.227Z,1010.83
2019-06-07T01:16:27.576Z,1010.86
2019-06-07T01:17:41.002Z,1010.87
2019-06-07T01:18:40.448Z,1010.89
2019-06-07T01:19:28.008Z,1010.91
2019-06-07T01:20:27.567Z,1010.92
2019-06-07T01:21:29.705Z,1010.97
2019-06-07T01:22:29.210Z,1010.98
2019-06-07T01:24:04.965Z,1010.98
2019-06-07T01:24:28.039Z,1010.94
2019-06-07T01:25:29.058Z,1010.93
2019-06-07T01:26:30.177Z,1010.92
2019-06-07T01:27:28.718Z,1010.91
2019-06-07T01:28:29.990Z,1010.91
2019-06-07T01:29:30.914Z,1010.94
2019-06-07T01:30:29.394Z,1010.93
2019-06-07T01:31:30.988Z,1010.94
2019-06-07T01:32:31.439Z,1010.95
2019-06-07T01:33:49.495Z,1010.96
2019-06-07T01:34:28.926Z,1010.94
2019-06-07T01:35:29.577Z,1011.01
2019-06-07T01:36:29.572Z,1010.98
2019-06-07T01:37:29.703Z,1011.04
2019-06-07T01:38:29.799Z,1011.04
2019-06-07T01:39:29.851Z,1010.98
2019-06-07T01:40:31.935Z,1010.96
2019-06-07T01:41:30.140Z,1010.93
2019-06-07T01:42:29.467Z,1010.90
2019-06-07T01:43:30.473Z,1010.91
2019-06-07T01:44:28.613Z,1010.86
2019-06-07T01:45:30.903Z,1010.86
2019-06-07T01:46:28.714Z,1010.83
2019-06-07T01:47:31.142Z,1010.80
2019-06-07T01:48:45.004Z,1010.84
2019-06-07T01:49:29.500Z,1010.89
2019-06-07T01:50:29.610Z,1010.91
2019-06-07T01:51:30.470Z,1010.92
2019-06-07T01:52:29.291Z,1010.92
2019-06-07T01:53:29.157Z,1010.87
2019-06-07T01:54:54.335Z,1010.83
2019-06-07T01:55:32.231Z,1010.81
2019-06-07T01:56:29.654Z,1010.79
2019-06-07T01:57:43.067Z,1010.73
2019-06-07T01:58:29.218Z,1010.73
2019-06-07T01:59:28.602Z,1010.77
2019-06-07T02:00:31.915Z,1010.75
2019-06-07T02:01:34.635Z,1010.74
2019-06-07T02:02:30.064Z,1010.74
2019-06-07T02:03:32.191Z,1010.74
2019-06-07T02:04:32.438Z,1010.76
2019-06-07T02:05:31.031Z,1010.84
2019-06-07T02:06:31.693Z,1010.91
2019-06-07T02:07:32.452Z,1010.95
2019-06-07T02:08:34.008Z,1011.01
2019-06-07T02:09:29.853Z,1011.03
2019-06-07T02:10:30.305Z,1011.03
2019-06-07T02:11:29.409Z,1011.04
2019-06-07T02:12:37.696Z,1011.02
2019-06-07T02:13:29.339Z,1011.09
2019-06-07T02:14:32.456Z,1011.08
2019-06-07T02:15:31.081Z,1011.10
2019-06-07T02:16:29.503Z,1011.13
2019-06-07T02:17:30.198Z,1011.11
2019-06-07T02:18:29.142Z,1011.13
2019-06-07T02:19:31.168Z,1011.10
2019-06-07T02:20:31.894Z,1011.06
2019-06-07T02:21:28.775Z,1011.05
2019-06-07T02:22:30.364Z,1011.05
2019-06-07T02:23:30.925Z,1011.06
2019-06-07T02:24:29.606Z,1011.06
2019-06-07T02:25:41.909Z,1011.06
2019-06-07T02:26:30.022Z,1011.09
2019-06-07T02:27:27.589Z,1011.07
2019-06-07T02:28:42.262Z,1011.13
2019-06-07T02:29:30.233Z,1011.12
2019-06-07T02:30:57.988Z,1011.16
2019-06-07T02:31:31.469Z,1011.19
2019-06-07T02:32:32.001Z,1011.16
2019-06-07T02:33:31.150Z,1011.16
2019-06-07T02:34:31.948Z,1011.14
2019-06-07T02:35:34.774Z,1011.14
2019-06-07T02:36:33.227Z,1011.14
2019-06-07T02:37:31.575Z,1011.11
2019-06-07T02:38:31.103Z,1011.11
2019-06-07T02:39:28.781Z,1011.04
2019-06-07T02:40:32.357Z,1011.11
2019-06-07T02:41:35.325Z,1011.07
2019-06-07T02:42:30.732Z,1011.12
2019-06-07T02:43:30.768Z,1011.12
2019-06-07T02:44:30.611Z,1011.07
2019-06-07T02:45:35.555Z,1011.04
2019-06-07T02:46:38.033Z,1011.02
2019-06-07T02:47:28.723Z,1011.00
2019-06-07T02:48:32.524Z,1010.96
2019-06-07T02:49:31.373Z,1010.95
2019-06-07T02:50:29.189Z,1010.94
2019-06-07T02:51:34.916Z,1010.93
2019-06-07T02:52:33.159Z,1010.93
2019-06-07T02:53:29.961Z,1010.93
2019-06-07T02:54:29.914Z,1010.98
2019-06-07T02:55:29.616Z,1010.99
2019-06-07T02:56:40.420Z,1010.98
2019-06-07T02:57:29.323Z,1011.04
2019-06-07T02:58:32.434Z,1011.03
2019-06-07T02:59:57.482Z,1011.05
2019-06-07T03:00:51.423Z,1011.07
2019-06-07T03:01:28.637Z,1011.14
2019-06-07T03:02:31.637Z,1011.15
2019-06-07T03:03:29.957Z,1011.14
2019-06-07T03:04:29.553Z,1011.15
2019-06-07T03:05:29.488Z,1011.16
2019-06-07T03:06:31.796Z,1011.16
2019-06-07T03:07:28.353Z,1011.17
2019-06-07T03:08:28.270Z,1011.12
2019-06-07T03:09:30.861Z,1011.13
2019-06-07T03:10:28.602Z,1011.08
2019-06-07T03:11:28.227Z,1011.03
2019-06-07T03:12:29.621Z,1011.01
2019-06-07T03:13:28.900Z,1011.07
2019-06-07T03:14:28.665Z,1011.05
2019-06-07T03:15:35.493Z,1011.14
2019-06-07T03:16:28.691Z,1011.20
2019-06-07T03:17:29.649Z,1011.22
2019-06-07T03:18:29.075Z,1011.26
2019-06-07T03:19:28.751Z,1011.25
2019-06-07T03:20:28.100Z,1011.26
2019-06-07T03:21:28.126Z,1011.24
2019-06-07T03:22:29.156Z,1011.22
2019-06-07T03:23:28.849Z,1011.25
2019-06-07T03:24:30.099Z,1011.31
2019-06-07T03:25:28.210Z,1011.34
2019-06-07T03:26:27.792Z,1011.36
2019-06-07T03:27:36.190Z,1011.34
2019-06-07T03:28:27.652Z,1011.33
2019-06-07T03:29:28.892Z,1011.31
2019-06-07T03:30:58.031Z,1011.35
2019-06-07T03:31:31.314Z,1011.33
2019-06-07T03:32:32.029Z,1011.35
2019-06-07T03:33:29.237Z,1011.36
2019-06-07T03:34:29.726Z,1011.33
2019-06-07T03:35:29.783Z,1011.37
2019-06-07T03:36:27.566Z,1011.42
2019-06-07T03:37:27.965Z,1011.41
2019-06-07T03:38:28.260Z,1011.35
2019-06-07T03:39:28.414Z,1011.35
2019-06-07T03:40:27.322Z,1011.33
2019-06-07T03:41:29.286Z,1011.37
2019-06-07T03:42:27.316Z,1011.40
2019-06-07T03:43:27.449Z,1011.48
2019-06-07T03:44:28.623Z,1011.50
2019-06-07T03:45:28.615Z,1011.51
2019-06-07T03:46:27.397Z,1011.50
2019-06-07T03:47:30.598Z,1011.50
2019-06-07T03:48:28.848Z,1011.53
2019-06-07T03:49:28.044Z,1011.54
2019-06-07T03:50:30.498Z,1011.53
2019-06-07T03:51:28.857Z,1011.56
2019-06-07T03:52:27.540Z,1011.56
2019-06-07T03:53:29.659Z,1011.61
2019-06-07T03:54:27.295Z,1011.63
2019-06-07T03:55:27.800Z,1011.66
2019-06-07T03:56:28.431Z,1011.67
2019-06-07T03:57:28.616Z,1011.65
2019-06-07T03:58:32.604Z,1011.63
2019-06-07T03:59:28.434Z,1011.63
2019-06-07T04:00:29.581Z,1011.65
2019-06-07T04:01:28.604Z,1011.67
2019-06-07T04:02:27.892Z,1011.72
2019-06-07T04:03:36.671Z,1011.71
2019-06-07T04:04:27.382Z,1011.74
2019-06-07T04:05:28.751Z,1011.70
2019-06-07T04:06:30.978Z,1011.74
2019-06-07T04:07:28.996Z,1011.75
2019-06-07T04:08:28.212Z,1011.76
2019-06-07T04:09:28.775Z,1011.80
2019-06-07T04:10:49.547Z,1011.83
2019-06-07T04:11:27.819Z,1011.82
2019-06-07T04:12:28.537Z,1011.84
2019-06-07T04:13:29.012Z,1011.84
2019-06-07T04:14:29.385Z,1011.76
2019-06-07T04:15:28.110Z,1011.74
2019-06-07T04:16:28.985Z,1011.71
2019-06-07T04:17:30.710Z,1011.71
2019-06-07T04:18:28.135Z,1011.71
2019-06-07T04:19:28.877Z,1011.68
2019-06-07T04:20:29.296Z,1011.68
2019-06-07T04:21:29.726Z,1011.69
2019-06-07T04:22:28.814Z,1011.71
2019-06-07T04:23:30.972Z,1011.71
2019-06-07T04:24:28.611Z,1011.75
2019-06-07T04:25:28.660Z,1011.76
2019-06-07T04:26:30.943Z,1011.72
2019-06-07T04:27:28.198Z,1011.78
2019-06-07T04:29:15.621Z,1011.82
2019-06-07T04:29:35.607Z,1011.83
2019-06-07T04:30:29.299Z,1011.85
2019-06-07T04:31:28.271Z,1011.83
2019-06-07T04:32:29.744Z,1011.86
2019-06-07T04:33:28.478Z,1011.86
2019-06-07T04:34:29.103Z,1011.98
2019-06-07T04:35:30.978Z,1011.99
2019-06-07T04:36:42.772Z,1011.92
2019-06-07T04:37:28.256Z,1011.92
2019-06-07T04:38:27.240Z,1011.88
2019-06-07T04:39:27.237Z,1011.91
2019-06-07T04:40:27.899Z,1011.86
2019-06-07T04:41:27.233Z,1011.86
2019-06-07T04:42:27.234Z,1011.90
2019-06-07T04:43:27.234Z,1011.85
2019-06-07T04:44:27.230Z,1011.85
2019-06-07T04:45:39.726Z,1011.82
2019-06-07T04:46:27.228Z,1011.82
2019-06-07T04:47:27.262Z,1011.85
2019-06-07T04:48:27.225Z,1011.79
2019-06-07T04:49:27.228Z,1011.78
2019-06-07T04:50:27.227Z,1011.74
2019-06-07T04:51:27.227Z,1011.78
2019-06-07T04:52:27.224Z,1011.78
2019-06-07T04:53:27.223Z,1011.79
2019-06-07T04:54:27.226Z,1011.79
2019-06-07T04:55:27.223Z,1011.73
2019-06-07T04:56:27.219Z,1011.71
2019-06-07T04:57:27.220Z,1011.66
2019-06-07T04:58:27.226Z,1011.67
2019-06-07T05:00:00.872Z,1011.69
2019-06-07T05:00:51.846Z,1011.67
2019-06-07T05:01:29.633Z,1011.66
2019-06-07T05:02:27.221Z,1011.66
2019-06-07T05:03:27.226Z,1011.67
2019-06-07T05:04:27.218Z,1011.68
2019-06-07T05:05:27.222Z,1011.69
2019-06-07T05:06:27.222Z,1011.73
2019-06-07T05:07:27.225Z,1011.68
2019-06-07T05:08:29.841Z,1011.66
2019-06-07T05:09:27.220Z,1011.65
2019-06-07T05:10:27.220Z,1011.67
2019-06-07T05:11:27.221Z,1011.65
2019-06-07T05:12:27.222Z,1011.68
2019-06-07T05:13:27.221Z,1011.67
2019-06-07T05:14:28.310Z,1011.72
2019-06-07T05:15:27.223Z,1011.74
2019-06-07T05:16:27.223Z,1011.76
2019-06-07T05:17:28.908Z,1011.78
2019-06-07T05:18:27.224Z,1011.83
2019-06-07T05:19:27.225Z,1011.86
2019-06-07T05:20:27.226Z,1011.88
2019-06-07T05:21:48.160Z,1011.91
2019-06-07T05:22:27.228Z,1011.85
2019-06-07T05:24:04.827Z,1011.88
2019-06-07T05:24:27.232Z,1011.87
2019-06-07T05:25:27.227Z,1011.84
2019-06-07T05:26:27.231Z,1011.87
2019-06-07T05:27:27.230Z,1011.84
2019-06-07T05:28:27.234Z,1011.83
2019-06-07T05:29:27.233Z,1011.84
2019-06-07T05:30:59.853Z,1011.86
2019-06-07T05:31:27.234Z,1011.87
2019-06-07T05:32:27.233Z,1011.88
2019-06-07T05:33:27.266Z,1011.88
2019-06-07T05:34:27.239Z,1011.89
2019-06-07T05:35:27.240Z,1011.88
2019-06-07T05:36:27.245Z,1011.89
2019-06-07T05:37:27.245Z,1011.91
2019-06-07T05:38:27.250Z,1011.95
2019-06-07T05:39:27.249Z,1011.93
2019-06-07T05:40:27.246Z,1011.94
2019-06-07T05:41:27.248Z,1011.98
2019-06-07T05:42:27.573Z,1011.93
2019-06-07T05:43:27.291Z,1011.90
2019-06-07T05:44:27.252Z,1011.90
2019-06-07T05:45:27.258Z,1011.88
2019-06-07T05:46:27.264Z,1011.89
2019-06-07T05:47:27.264Z,1011.87
2019-06-07T05:48:27.262Z,1011.82
2019-06-07T05:49:27.271Z,1011.87
2019-06-07T05:50:55.394Z,1011.91
2019-06-07T05:51:27.270Z,1011.86
2019-06-07T05:52:27.273Z,1011.91
2019-06-07T05:53:27.274Z,1011.92
2019-06-07T05:54:27.279Z,1011.88
2019-06-07T05:55:27.276Z,1011.89
2019-06-07T05:56:27.280Z,1011.87
2019-06-07T05:57:27.282Z,1011.85
2019-06-07T05:58:27.290Z,1011.87
2019-06-07T05:59:27.289Z,1011.85
2019-06-07T06:00:27.562Z,1011.86
2019-06-07T06:01:42.895Z,1011.84
2019-06-07T06:02:27.298Z,1011.85
2019-06-07T06:03:27.301Z,1011.86
2019-06-07T06:04:27.423Z,1011.93
2019-06-07T06:05:34.577Z,1011.91
2019-06-07T06:06:27.308Z,1011.96
2019-06-07T06:07:27.314Z,1011.93
2019-06-07T06:08:27.311Z,1011.90
2019-06-07T06:09:27.318Z,1011.91
2019-06-07T06:10:27.322Z,1011.93
2019-06-07T06:11:43.000Z,1011.99
2019-06-07T06:12:35.488Z,1011.98
2019-06-07T06:13:27.329Z,1011.94
2019-06-07T06:14:27.337Z,1011.97
2019-06-07T06:15:42.126Z,1011.93
2019-06-07T06:16:27.344Z,1011.98
2019-06-07T06:17:27.345Z,1011.98
2019-06-07T06:18:27.350Z,1011.96
2019-06-07T06:19:27.354Z,1011.90
2019-06-07T06:20:32.886Z,1011.92
2019-06-07T06:21:27.488Z,1011.93
2019-06-07T06:22:27.367Z,1011.97
2019-06-07T06:23:27.372Z,1011.99
2019-06-07T06:24:27.429Z,1011.99
2019-06-07T06:25:32.991Z,1011.99
2019-06-07T06:26:27.383Z,1012.00
2019-06-07T06:28:03.472Z,1011.99
2019-06-07T06:28:27.515Z,1012.01
2019-06-07T06:29:27.551Z,1011.99
2019-06-07T06:30:27.405Z,1011.99
2019-06-07T06:31:27.412Z,1011.98
2019-06-07T06:32:41.779Z,1012.01
2019-06-07T06:33:34.215Z,1011.98
2019-06-07T06:34:27.421Z,1011.96
2019-06-07T06:35:27.430Z,1011.96
2019-06-07T06:36:27.430Z,1011.98
2019-06-07T06:37:27.438Z,1011.96
2019-06-07T06:38:27.444Z,1011.99
2019-06-07T06:39:27.448Z,1011.97
2019-06-07T06:40:27.452Z,1011.95
2019-06-07T06:41:27.458Z,1011.97
2019-06-07T06:42:27.461Z,1011.96
2019-06-07T06:43:27.469Z,1011.96
2019-06-07T06:44:27.476Z,1011.95
2019-06-07T06:45:27.479Z,1011.97
2019-06-07T06:46:38.510Z,1011.97
2019-06-07T06:47:27.493Z,1011.97
2019-06-07T06:48:27.496Z,1011.96
2019-06-07T06:49:27.512Z,1011.99
2019-06-07T06:50:27.528Z,1012.00
2019-06-07T06:51:27.512Z,1012.02
2019-06-07T06:52:27.551Z,1011.98
2019-06-07T06:53:27.526Z,1012.01
2019-06-07T06:54:40.051Z,1011.96
2019-06-07T06:55:27.536Z,1011.96
2019-06-07T06:56:27.558Z,1011.98
2019-06-07T06:57:27.813Z,1011.96
2019-06-07T06:58:27.555Z,1011.96
2019-06-07T06:59:38.519Z,1011.95
2019-06-07T07:00:43.101Z,1011.95
2019-06-07T07:01:27.571Z,1011.96
2019-06-07T07:02:27.582Z,1011.92
2019-06-07T07:04:01.294Z,1011.93
2019-06-07T07:04:27.589Z,1011.88
2019-06-07T07:05:27.601Z,1011.91
2019-06-07T07:06:27.604Z,1011.89
2019-06-07T07:07:27.637Z,1011.87
2019-06-07T07:08:27.614Z,1011.91
2019-06-07T07:09:27.625Z,1011.91
2019-06-07T07:10:27.625Z,1011.91
2019-06-07T07:11:27.635Z,1011.89
2019-06-07T07:12:27.642Z,1011.94
2019-06-07T07:13:27.651Z,1011.95
2019-06-07T07:14:27.754Z,1011.92
2019-06-07T07:15:27.665Z,1011.93
2019-06-07T07:16:27.673Z,1011.93
2019-06-07T07:17:46.888Z,1011.91
2019-06-07T07:18:27.682Z,1011.88
2019-06-07T07:19:27.688Z,1011.87
2019-06-07T07:20:27.693Z,1011.88
2019-06-07T07:21:27.699Z,1011.87
2019-06-07T07:22:27.709Z,1011.85
2019-06-07T07:23:27.714Z,1011.83
2019-06-07T07:24:27.720Z,1011.87
2019-06-07T07:25:27.726Z,1011.85
2019-06-07T07:26:27.733Z,1011.86
2019-06-07T07:27:28.054Z,1011.90
2019-06-07T07:28:27.758Z,1011.91
2019-06-07T07:29:27.760Z,1011.87
2019-06-07T07:30:36.713Z,1011.89
2019-06-07T07:31:27.765Z,1011.88
2019-06-07T07:32:27.775Z,1011.87
2019-06-07T07:34:20.099Z,1011.87
2019-06-07T07:34:35.336Z,1011.83
2019-06-07T07:35:27.795Z,1011.86
2019-06-07T07:36:38.919Z,1011.85
2019-06-07T07:37:27.826Z,1011.86
2019-06-07T07:38:27.816Z,1011.89
2019-06-07T07:39:27.823Z,1011.90
2019-06-07T07:40:57.284Z,1011.91
2019-06-07T07:41:27.836Z,1011.96
2019-06-07T07:42:27.849Z,1011.95
2019-06-07T07:43:27.870Z,1011.98
2019-06-07T07:44:27.857Z,1011.95
2019-06-07T07:45:27.893Z,1011.93
2019-06-07T07:46:29.622Z,1011.97
2019-06-07T07:47:27.882Z,1011.94
2019-06-07T07:48:27.958Z,1011.95
2019-06-07T07:49:27.897Z,1011.96
2019-06-07T07:50:28.075Z,1011.97
2019-06-07T07:51:27.918Z,1011.96
2019-06-07T07:52:27.921Z,1011.95
2019-06-07T07:53:47.962Z,1011.95
2019-06-07T07:54:27.935Z,1011.89
2019-06-07T07:55:27.977Z,1011.91
2019-06-07T07:56:27.951Z,1011.91
2019-06-07T07:57:27.963Z,1011.88
2019-06-07T07:58:27.968Z,1011.84
2019-06-07T07:59:41.823Z,1011.84
2019-06-07T08:01:27.993Z,1011.88
2019-06-07T08:02:28.005Z,1011.92
2019-06-07T08:03:28.013Z,1011.91
2019-06-07T08:05:12.210Z,1011.91
2019-06-07T08:05:41.916Z,1011.92
2019-06-07T08:06:28.040Z,1011.95
2019-06-07T08:07:28.284Z,1011.93
2019-06-07T08:08:28.058Z,1011.99
2019-06-07T08:09:28.063Z,1012.00
2019-06-07T08:10:28.079Z,1012.01
2019-06-07T08:11:28.084Z,1012.00
2019-06-07T08:12:28.095Z,1012.05
2019-06-07T08:13:28.148Z,1012.02
2019-06-07T08:14:28.111Z,1012.05
2019-06-07T08:15:28.120Z,1012.02
2019-06-07T08:16:28.133Z,1012.01
2019-06-07T08:17:28.144Z,1012.04
2019-06-07T08:18:28.153Z,1012.05
2019-06-07T08:19:28.155Z,1012.06
2019-06-07T08:20:28.168Z,1012.05
2019-06-07T08:21:28.176Z,1012.08
2019-06-07T08:22:28.187Z,1012.05
2019-06-07T08:23:28.192Z,1012.06
2019-06-07T08:24:28.200Z,1012.10
2019-06-07T08:25:28.210Z,1012.12
2019-06-07T08:26:28.262Z,1012.11
2019-06-07T08:27:28.230Z,1012.13
2019-06-07T08:28:28.240Z,1012.15
2019-06-07T08:29:43.774Z,1012.17
2019-06-07T08:30:50.097Z,1012.12
2019-06-07T08:31:28.267Z,1012.13
2019-06-07T08:32:28.275Z,1012.19
2019-06-07T08:33:28.284Z,1012.16
2019-06-07T08:34:28.295Z,1012.15
2019-06-07T08:36:41.149Z,1012.12
2019-06-07T08:38:13.313Z,1012.10
2019-06-07T08:38:46.589Z,1012.13
2019-06-07T08:39:28.339Z,1012.12
2019-06-07T08:40:28.367Z,1012.16
2019-06-07T08:41:28.361Z,1012.13
2019-06-07T08:42:37.077Z,1012.13
2019-06-07T08:43:28.400Z,1012.15
2019-06-07T08:44:28.386Z,1012.16
2019-06-07T08:45:28.394Z,1012.14
2019-06-07T08:46:28.404Z,1012.15
2019-06-07T08:47:28.413Z,1012.14
2019-06-07T08:48:30.228Z,1012.15
2019-06-07T08:49:28.430Z,1012.17
2019-06-07T08:50:28.462Z,1012.18
2019-06-07T08:51:28.447Z,1012.18
2019-06-07T08:52:28.504Z,1012.14
2019-06-07T08:53:28.463Z,1012.16
2019-06-07T08:54:28.475Z,1012.16
2019-06-07T08:55:28.503Z,1012.16
2019-06-07T08:56:28.493Z,1012.11
2019-06-07T08:57:28.500Z,1012.02
2019-06-07T08:58:28.523Z,1011.93
2019-06-07T08:59:28.521Z,1011.94
2019-06-07T09:00:45.385Z,1011.94
2019-06-07T09:01:28.536Z,1011.90
2019-06-07T09:02:28.552Z,1011.84
2019-06-07T09:03:28.582Z,1011.82
2019-06-07T09:04:28.560Z,1011.78
2019-06-07T09:05:28.580Z,1011.77
2019-06-07T09:07:01.977Z,1011.72
2019-06-07T09:07:28.582Z,1011.78
2019-06-07T09:08:30.692Z,1011.81
2019-06-07T09:09:28.596Z,1011.84
2019-06-07T09:10:28.601Z,1011.81
2019-06-07T09:11:28.611Z,1011.81
2019-06-07T09:12:28.616Z,1011.79
2019-06-07T09:13:28.622Z,1011.75
2019-06-07T09:14:28.626Z,1011.74
2019-06-07T09:15:28.629Z,1011.70
2019-06-07T09:16:28.637Z,1011.68
2019-06-07T09:17:28.640Z,1011.64
2019-06-07T09:18:42.053Z,1011.67
2019-06-07T09:19:28.651Z,1011.69
2019-06-07T09:20:37.111Z,1011.69
2019-06-07T09:21:28.661Z,1011.69
2019-06-07T09:22:28.720Z,1011.68
2019-06-07T09:23:28.679Z,1011.67
2019-06-07T09:24:28.674Z,1011.60
2019-06-07T09:25:29.075Z,1011.60
2019-06-07T09:26:28.731Z,1011.57
2019-06-07T09:27:28.985Z,1011.59
2019-06-07T09:28:28.693Z,1011.59
2019-06-07T09:29:28.702Z,1011.58
2019-06-07T09:30:28.699Z,1011.58
2019-06-07T09:31:51.050Z,1011.60
2019-06-07T09:32:28.709Z,1011.58
2019-06-07T09:33:28.714Z,1011.59
2019-06-07T09:34:28.853Z,1011.54
2019-06-07T09:35:28.718Z,1011.58
2019-06-07T09:36:28.725Z,1011.57
2019-06-07T09:38:28.731Z,1011.57
2019-06-07T09:39:28.735Z,1011.57
2019-06-07T09:40:28.740Z,1011.57
2019-06-07T09:41:46.914Z,1011.59
2019-06-07T09:42:28.748Z,1011.55
2019-06-07T09:44:00.693Z,1011.59
2019-06-07T09:44:28.753Z,1011.60
2019-06-07T09:45:28.810Z,1011.58
2019-06-07T09:46:28.759Z,1011.60
2019-06-07T09:47:32.244Z,1011.62
2019-06-07T09:49:32.718Z,1011.62
2019-06-07T09:50:28.778Z,1011.62
2019-06-07T09:51:28.781Z,1011.62
2019-06-07T09:52:28.782Z,1011.59
2019-06-07T09:53:28.786Z,1011.59
2019-06-07T09:55:03.879Z,1011.60
2019-06-07T09:55:28.796Z,1011.62
2019-06-07T09:56:28.798Z,1011.60
2019-06-07T09:57:28.801Z,1011.62
2019-06-07T09:58:51.217Z,1011.59
2019-06-07T09:59:28.808Z,1011.63
2019-06-07T10:00:44.056Z,1011.61
2019-06-07T10:01:28.813Z,1011.64
2019-06-07T10:02:28.879Z,1011.65
2019-06-07T10:03:28.824Z,1011.65
2019-06-07T10:04:31.457Z,1011.61
2019-06-07T10:05:28.830Z,1011.54
2019-06-07T10:06:28.834Z,1011.54
2019-06-07T10:07:32.051Z,1011.53
2019-06-07T10:11:28.860Z,1011.49
2019-06-07T10:12:28.862Z,1011.51
2019-06-07T10:13:28.874Z,1011.52
2019-06-07T10:14:28.866Z,1011.48
2019-06-07T10:15:28.868Z,1011.46
2019-06-07T10:16:28.875Z,1011.46
2019-06-07T10:17:28.874Z,1011.42
2019-06-07T10:18:28.878Z,1011.39
2019-06-07T10:19:28.880Z,1011.39
2019-06-07T10:20:28.886Z,1011.40
2019-06-07T10:21:28.888Z,1011.38
2019-06-07T10:22:28.892Z,1011.35
2019-06-07T10:23:28.902Z,1011.35
2019-06-07T10:24:28.901Z,1011.34
2019-06-07T10:25:28.915Z,1011.32
2019-06-07T10:26:28.906Z,1011.30
2019-06-07T10:27:28.925Z,1011.29
2019-06-07T10:28:28.913Z,1011.32
2019-06-07T10:29:28.918Z,1011.26
2019-06-07T10:30:28.923Z,1011.27
2019-06-07T10:31:28.926Z,1011.30
2019-06-07T10:32:28.926Z,1011.27
2019-06-07T10:33:29.043Z,1011.26
2019-06-07T10:34:28.942Z,1011.28
2019-06-07T10:35:28.939Z,1011.26
2019-06-07T10:36:28.945Z,1011.27
2019-06-07T10:37:28.948Z,1011.25
2019-06-07T10:38:28.948Z,1011.27
2019-06-07T10:39:28.969Z,1011.23
2019-06-07T10:40:28.953Z,1011.21
2019-06-07T10:41:28.958Z,1011.21
2019-06-07T10:42:28.965Z,1011.17
2019-06-07T10:43:28.965Z,1011.18
2019-06-07T10:44:28.971Z,1011.18
2019-06-07T10:45:28.976Z,1011.17
2019-06-07T10:46:28.977Z,1011.21
2019-06-07T10:47:28.985Z,1011.19
2019-06-07T10:48:28.987Z,1011.19
2019-06-07T10:49:28.989Z,1011.21
2019-06-07T10:50:29.015Z,1011.20
2019-06-07T10:51:28.992Z,1011.17
2019-06-07T10:52:28.997Z,1011.15
2019-06-07T10:53:29.000Z,1011.13
2019-06-07T10:54:30.810Z,1011.14
2019-06-07T10:55:29.008Z,1011.12
2019-06-07T10:56:29.018Z,1011.11
2019-06-07T10:57:29.013Z,1011.10
2019-06-07T10:58:29.014Z,1011.12
2019-06-07T10:59:29.020Z,1011.13
2019-06-07T11:00:29.019Z,1011.06
2019-06-07T11:01:29.025Z,1011.05
2019-06-07T11:02:29.026Z,1011.00
2019-06-07T11:03:29.032Z,1011.04
2019-06-07T11:04:29.042Z,1011.01
2019-06-07T11:05:29.038Z,1011.05
2019-06-07T11:06:29.041Z,1011.02
2019-06-07T11:07:29.046Z,1011.06
2019-06-07T11:08:29.045Z,1011.01
2019-06-07T11:09:29.048Z,1011.03
2019-06-07T11:10:29.054Z,1011.03
2019-06-07T11:11:29.056Z,1011.02
2019-06-07T11:12:29.061Z,1011.01
2019-06-07T11:13:29.063Z,1010.99
2019-06-07T11:14:29.064Z,1011.01
2019-06-07T11:15:29.159Z,1010.97
2019-06-07T11:16:29.077Z,1010.97
2019-06-07T11:17:29.073Z,1010.99
2019-06-07T11:18:29.073Z,1011.02
2019-06-07T11:19:29.081Z,1011.00
2019-06-07T11:20:29.081Z,1010.98
2019-06-07T11:21:29.085Z,1010.95
2019-06-07T11:22:29.088Z,1010.92
2019-06-07T11:23:29.094Z,1010.93
2019-06-07T11:24:29.092Z,1010.90
2019-06-07T11:25:29.097Z,1010.90
2019-06-07T11:26:29.110Z,1010.90
2019-06-07T11:27:29.103Z,1010.91
2019-06-07T11:28:29.107Z,1010.90
2019-06-07T11:29:29.107Z,1010.93
2019-06-07T11:30:29.114Z,1010.89
2019-06-07T11:31:29.113Z,1010.90
2019-06-07T11:32:29.141Z,1010.89
2019-06-07T11:33:29.116Z,1010.89
2019-06-07T11:34:29.122Z,1010.87
2019-06-07T11:35:29.123Z,1010.88
2019-06-07T11:36:29.126Z,1010.84
2019-06-07T11:37:29.131Z,1010.79
2019-06-07T11:38:29.130Z,1010.83
2019-06-07T11:39:29.142Z,1010.83
2019-06-07T11:40:35.444Z,1010.84
2019-06-07T11:41:29.141Z,1010.83
2019-06-07T11:42:29.143Z,1010.84
2019-06-07T11:43:29.154Z,1010.83
2019-06-07T11:44:29.152Z,1010.79
2019-06-07T11:45:29.148Z,1010.75
2019-06-07T11:46:29.154Z,1010.74
2019-06-07T11:47:29.163Z,1010.71
2019-06-07T11:48:29.159Z,1010.73
2019-06-07T11:49:29.157Z,1010.71
2019-06-07T11:50:29.175Z,1010.70
2019-06-07T11:51:29.169Z,1010.71
2019-06-07T11:52:29.174Z,1010.69
2019-06-07T11:53:29.173Z,1010.69
2019-06-07T11:54:29.181Z,1010.65
2019-06-07T11:55:29.180Z,1010.66
2019-06-07T11:56:29.187Z,1010.69
2019-06-07T11:57:29.208Z,1010.62
2019-06-07T11:58:29.217Z,1010.65
2019-06-07T11:59:29.193Z,1010.58
2019-06-07T12:00:29.196Z,1010.58
2019-06-07T12:01:29.200Z,1010.58
2019-06-07T12:02:29.209Z,1010.55
2019-06-07T12:03:29.206Z,1010.56
2019-06-07T12:04:34.761Z,1010.54
2019-06-07T12:05:29.211Z,1010.54
2019-06-07T12:06:29.214Z,1010.53
2019-06-07T12:07:29.215Z,1010.56
2019-06-07T12:08:29.219Z,1010.53
2019-06-07T12:09:29.225Z,1010.49
2019-06-07T12:10:41.755Z,1010.46
2019-06-07T12:11:29.247Z,1010.45
2019-06-07T12:12:29.231Z,1010.46